sensor_id;sensor_type;location;lat;lon;timestamp;temperature;humidity
43151;DHT22;28755;51.478;5.702;2022-07-19T00:01:36;22.80;99.90
43151;DHT22;28755;51.478;5.702;2022-07-19T00:04:02;22.80;99.90
43151;DHT22;28755;51.478;5.702;2022-07-19T00:06:28;22.70;99.90
43151;DHT22;28755;51.478;5.702;2022-07-19T00:08:53;22.70;99.90
43151;DHT22;28755;51.478;5.702;2022-07-19T00:11:19;22.70;99.90
43151;DHT22;28755;51.478;5.702;2022-07-19T00:13:45;22.60;99.90
43151;DHT22;28755;51.478;5.702;2022-07-19T00:16:10;22.60;99.90
43151;DHT22;28755;51.478;5.702;2022-07-19T00:18:36;22.60;99.90
43151;DHT22;28755;51.478;5.702;2022-07-19T00:21:02;22.50;99.90
43151;DHT22;28755;51.478;5.702;2022-07-19T00:23:27;22.50;99.90
43151;DHT22;28755;51.478;5.702;2022-07-19T00:25:53;22.50;99.90
43151;DHT22;28755;51.478;5.702;2022-07-19T00:28:18;22.40;99.90
43151;DHT22;28755;51.478;5.702;2022-07-19T00:30:44;22.40;99.90
43151;DHT22;28755;51.478;5.702;2022-07-19T00:33:10;22.40;99.90
43151;DHT22;28755;51.478;5.702;2022-07-19T00:35:36;22.40;99.90
43151;DHT22;28755;51.478;5.702;2022-07-19T00:38:06;22.40;99.90
43151;DHT22;28755;51.478;5.702;2022-07-19T00:40:32;22.30;99.90
43151;DHT22;28755;51.478;5.702;2022-07-19T00:42:57;22.40;99.90
43151;DHT22;28755;51.478;5.702;2022-07-19T00:45:24;22.40;99.90
43151;DHT22;28755;51.478;5.702;2022-07-19T00:47:49;22.30;99.90
43151;DHT22;28755;51.478;5.702;2022-07-19T00:50:15;22.30;99.90
43151;DHT22;28755;51.478;5.702;2022-07-19T00:52:43;22.30;99.90
43151;DHT22;28755;51.478;5.702;2022-07-19T00:55:11;22.20;99.90
43151;DHT22;28755;51.478;5.702;2022-07-19T00:57:38;22.10;99.90
43151;DHT22;28755;51.478;5.702;2022-07-19T01:00:05;22.10;99.90
43151;DHT22;28755;51.478;5.702;2022-07-19T01:02:31;22.10;99.90
43151;DHT22;28755;51.478;5.702;2022-07-19T01:04:57;22.00;99.90
43151;DHT22;28755;51.478;5.702;2022-07-19T01:07:24;22.00;99.90
43151;DHT22;28755;51.478;5.702;2022-07-19T01:09:50;22.00;99.90
43151;DHT22;28755;51.478;5.702;2022-07-19T01:12:17;21.90;99.90
43151;DHT22;28755;51.478;5.702;2022-07-19T01:14:43;21.80;99.90
43151;DHT22;28755;51.478;5.702;2022-07-19T01:17:09;21.80;99.90
43151;DHT22;28755;51.478;5.702;2022-07-19T01:19:35;21.80;99.90
43151;DHT22;28755;51.478;5.702;2022-07-19T01:22:00;21.70;99.90
43151;DHT22;28755;51.478;5.702;2022-07-19T01:24:26;21.70;99.90
43151;DHT22;28755;51.478;5.702;2022-07-19T01:26:52;21.60;99.90
43151;DHT22;28755;51.478;5.702;2022-07-19T01:29:18;21.60;99.90
43151;DHT22;28755;51.478;5.702;2022-07-19T01:31:44;21.50;99.90
43151;DHT22;28755;51.478;5.702;2022-07-19T01:34:10;21.50;99.90
43151;DHT22;28755;51.478;5.702;2022-07-19T01:36:35;21.50;99.90
43151;DHT22;28755;51.478;5.702;2022-07-19T01:39:01;21.40;99.90
43151;DHT22;28755;51.478;5.702;2022-07-19T01:41:26;21.40;99.90
43151;DHT22;28755;51.478;5.702;2022-07-19T01:43:52;21.40;99.90
43151;DHT22;28755;51.478;5.702;2022-07-19T01:46:18;21.40;99.90
43151;DHT22;28755;51.478;5.702;2022-07-19T01:48:43;21.30;99.90
43151;DHT22;28755;51.478;5.702;2022-07-19T01:51:09;21.20;99.90
43151;DHT22;28755;51.478;5.702;2022-07-19T01:53:34;21.30;99.90
43151;DHT22;28755;51.478;5.702;2022-07-19T01:56:04;21.20;99.90
43151;DHT22;28755;51.478;5.702;2022-07-19T01:58:29;21.20;99.90
43151;DHT22;28755;51.478;5.702;2022-07-19T02:00:55;21.20;99.90
43151;DHT22;28755;51.478;5.702;2022-07-19T02:03:20;21.20;99.90
43151;DHT22;28755;51.478;5.702;2022-07-19T02:05:46;21.20;99.90
43151;DHT22;28755;51.478;5.702;2022-07-19T02:08:11;21.10;99.90
43151;DHT22;28755;51.478;5.702;2022-07-19T02:10:37;21.10;99.90
43151;DHT22;28755;51.478;5.702;2022-07-19T02:13:02;21.10;99.90
43151;DHT22;28755;51.478;5.702;2022-07-19T02:15:28;21.10;99.90
43151;DHT22;28755;51.478;5.702;2022-07-19T02:17:54;21.00;99.90
43151;DHT22;28755;51.478;5.702;2022-07-19T02:20:21;21.10;99.90
43151;DHT22;28755;51.478;5.702;2022-07-19T02:22:47;21.00;99.90
43151;DHT22;28755;51.478;5.702;2022-07-19T02:25:13;21.00;99.90
43151;DHT22;28755;51.478;5.702;2022-07-19T02:27:38;20.90;99.90
43151;DHT22;28755;51.478;5.702;2022-07-19T02:30:05;20.90;99.90
43151;DHT22;28755;51.478;5.702;2022-07-19T02:32:31;20.80;99.90
43151;DHT22;28755;51.478;5.702;2022-07-19T02:34:56;20.80;99.90
43151;DHT22;28755;51.478;5.702;2022-07-19T02:37:22;20.70;99.90
43151;DHT22;28755;51.478;5.702;2022-07-19T02:39:47;20.70;99.90
43151;DHT22;28755;51.478;5.702;2022-07-19T02:42:13;20.60;99.90
43151;DHT22;28755;51.478;5.702;2022-07-19T02:44:38;20.60;99.90
43151;DHT22;28755;51.478;5.702;2022-07-19T02:47:04;20.60;99.90
43151;DHT22;28755;51.478;5.702;2022-07-19T02:49:29;20.60;99.90
43151;DHT22;28755;51.478;5.702;2022-07-19T02:51:55;20.50;99.90
43151;DHT22;28755;51.478;5.702;2022-07-19T02:54:21;20.40;99.90
43151;DHT22;28755;51.478;5.702;2022-07-19T02:56:46;20.40;99.90
43151;DHT22;28755;51.478;5.702;2022-07-19T02:59:12;20.40;99.90
43151;DHT22;28755;51.478;5.702;2022-07-19T03:01:37;20.40;99.90
43151;DHT22;28755;51.478;5.702;2022-07-19T03:04:03;20.40;99.90
43151;DHT22;28755;51.478;5.702;2022-07-19T03:06:29;20.40;99.90
43151;DHT22;28755;51.478;5.702;2022-07-19T03:08:54;20.40;99.90
43151;DHT22;28755;51.478;5.702;2022-07-19T03:11:20;20.40;99.90
43151;DHT22;28755;51.478;5.702;2022-07-19T03:13:46;20.40;99.90
43151;DHT22;28755;51.478;5.702;2022-07-19T03:16:11;20.30;99.90
43151;DHT22;28755;51.478;5.702;2022-07-19T03:18:37;20.30;99.90
43151;DHT22;28755;51.478;5.702;2022-07-19T03:21:03;20.30;99.90
43151;DHT22;28755;51.478;5.702;2022-07-19T03:23:32;20.20;99.90
43151;DHT22;28755;51.478;5.702;2022-07-19T03:25:58;20.20;99.90
43151;DHT22;28755;51.478;5.702;2022-07-19T03:28:24;20.40;99.90
43151;DHT22;28755;51.478;5.702;2022-07-19T03:30:49;20.40;99.90
43151;DHT22;28755;51.478;5.702;2022-07-19T03:33:15;20.60;99.90
43151;DHT22;28755;51.478;5.702;2022-07-19T03:35:42;20.50;99.90
43151;DHT22;28755;51.478;5.702;2022-07-19T03:38:09;20.50;99.90
43151;DHT22;28755;51.478;5.702;2022-07-19T03:40:35;20.40;99.90
43151;DHT22;28755;51.478;5.702;2022-07-19T03:43:00;20.40;99.90
43151;DHT22;28755;51.478;5.702;2022-07-19T03:45:26;20.30;99.90
43151;DHT22;28755;51.478;5.702;2022-07-19T03:47:52;20.20;99.90
43151;DHT22;28755;51.478;5.702;2022-07-19T03:50:17;20.00;99.90
43151;DHT22;28755;51.478;5.702;2022-07-19T03:52:43;19.90;99.90
43151;DHT22;28755;51.478;5.702;2022-07-19T03:55:08;19.90;99.90
43151;DHT22;28755;51.478;5.702;2022-07-19T03:57:34;19.80;99.90
43151;DHT22;28755;51.478;5.702;2022-07-19T04:00:00;19.80;99.90
43151;DHT22;28755;51.478;5.702;2022-07-19T04:02:25;19.80;99.90
43151;DHT22;28755;51.478;5.702;2022-07-19T04:04:51;19.70;99.90
43151;DHT22;28755;51.478;5.702;2022-07-19T04:07:16;19.60;99.90
43151;DHT22;28755;51.478;5.702;2022-07-19T04:09:42;19.60;99.90
43151;DHT22;28755;51.478;5.702;2022-07-19T04:12:07;19.70;99.90
43151;DHT22;28755;51.478;5.702;2022-07-19T04:14:33;19.70;99.90
43151;DHT22;28755;51.478;5.702;2022-07-19T04:16:59;19.70;99.90
43151;DHT22;28755;51.478;5.702;2022-07-19T04:19:25;19.80;99.90
43151;DHT22;28755;51.478;5.702;2022-07-19T04:21:50;19.80;99.90
43151;DHT22;28755;51.478;5.702;2022-07-19T04:24:16;19.70;99.90
43151;DHT22;28755;51.478;5.702;2022-07-19T04:26:41;19.90;99.90
43151;DHT22;28755;51.478;5.702;2022-07-19T04:29:07;19.90;99.90
43151;DHT22;28755;51.478;5.702;2022-07-19T04:31:32;19.90;99.90
43151;DHT22;28755;51.478;5.702;2022-07-19T04:33:58;19.90;99.90
43151;DHT22;28755;51.478;5.702;2022-07-19T04:36:24;19.90;99.90
43151;DHT22;28755;51.478;5.702;2022-07-19T04:38:49;19.90;99.90
43151;DHT22;28755;51.478;5.702;2022-07-19T04:41:15;20.00;99.90
43151;DHT22;28755;51.478;5.702;2022-07-19T04:43:40;20.10;99.90
43151;DHT22;28755;51.478;5.702;2022-07-19T04:46:06;20.10;99.90
43151;DHT22;28755;51.478;5.702;2022-07-19T04:48:32;20.20;99.90
43151;DHT22;28755;51.478;5.702;2022-07-19T04:50:58;20.30;99.90
43151;DHT22;28755;51.478;5.702;2022-07-19T04:53:23;20.30;99.90
43151;DHT22;28755;51.478;5.702;2022-07-19T04:55:49;20.40;99.90
43151;DHT22;28755;51.478;5.702;2022-07-19T04:58:14;20.40;99.90
43151;DHT22;28755;51.478;5.702;2022-07-19T05:00:40;20.40;99.90
43151;DHT22;28755;51.478;5.702;2022-07-19T05:03:06;20.50;99.90
43151;DHT22;28755;51.478;5.702;2022-07-19T05:05:32;20.50;99.90
43151;DHT22;28755;51.478;5.702;2022-07-19T05:07:57;20.70;99.90
43151;DHT22;28755;51.478;5.702;2022-07-19T05:10:23;20.80;99.90
43151;DHT22;28755;51.478;5.702;2022-07-19T05:12:48;20.90;99.90
43151;DHT22;28755;51.478;5.702;2022-07-19T05:15:14;21.00;99.90
43151;DHT22;28755;51.478;5.702;2022-07-19T05:17:40;21.10;99.90
43151;DHT22;28755;51.478;5.702;2022-07-19T05:20:05;21.10;99.90
43151;DHT22;28755;51.478;5.702;2022-07-19T05:22:32;21.20;99.90
43151;DHT22;28755;51.478;5.702;2022-07-19T05:24:58;21.30;99.90
43151;DHT22;28755;51.478;5.702;2022-07-19T05:27:24;21.50;99.90
43151;DHT22;28755;51.478;5.702;2022-07-19T05:29:50;21.60;99.90
43151;DHT22;28755;51.478;5.702;2022-07-19T05:32:16;21.80;99.90
43151;DHT22;28755;51.478;5.702;2022-07-19T05:34:41;21.90;99.90
43151;DHT22;28755;51.478;5.702;2022-07-19T05:37:08;22.10;99.90
43151;DHT22;28755;51.478;5.702;2022-07-19T05:39:33;22.20;99.90
43151;DHT22;28755;51.478;5.702;2022-07-19T05:41:59;22.40;99.90
43151;DHT22;28755;51.478;5.702;2022-07-19T05:44:25;22.50;99.90
43151;DHT22;28755;51.478;5.702;2022-07-19T05:46:50;22.60;99.90
43151;DHT22;28755;51.478;5.702;2022-07-19T05:49:16;22.60;99.90
43151;DHT22;28755;51.478;5.702;2022-07-19T05:51:41;22.80;99.90
43151;DHT22;28755;51.478;5.702;2022-07-19T05:54:07;23.00;99.90
43151;DHT22;28755;51.478;5.702;2022-07-19T05:56:33;23.20;99.90
43151;DHT22;28755;51.478;5.702;2022-07-19T05:58:59;23.20;99.90
43151;DHT22;28755;51.478;5.702;2022-07-19T06:01:27;23.30;99.90
43151;DHT22;28755;51.478;5.702;2022-07-19T06:03:55;23.60;99.90
43151;DHT22;28755;51.478;5.702;2022-07-19T06:06:22;23.70;99.90
43151;DHT22;28755;51.478;5.702;2022-07-19T06:08:49;23.80;99.90
43151;DHT22;28755;51.478;5.702;2022-07-19T06:11:16;24.00;99.90
43151;DHT22;28755;51.478;5.702;2022-07-19T06:13:42;24.10;99.90
43151;DHT22;28755;51.478;5.702;2022-07-19T06:16:09;24.10;99.90
43151;DHT22;28755;51.478;5.702;2022-07-19T06:18:35;24.20;99.90
43151;DHT22;28755;51.478;5.702;2022-07-19T06:21:04;24.30;99.90
43151;DHT22;28755;51.478;5.702;2022-07-19T06:23:30;24.30;99.90
43151;DHT22;28755;51.478;5.702;2022-07-19T06:25:56;24.50;99.90
43151;DHT22;28755;51.478;5.702;2022-07-19T06:28:22;24.70;99.90
43151;DHT22;28755;51.478;5.702;2022-07-19T06:30:47;24.80;99.90
43151;DHT22;28755;51.478;5.702;2022-07-19T06:33:13;24.90;99.90
43151;DHT22;28755;51.478;5.702;2022-07-19T06:35:40;24.90;99.90
43151;DHT22;28755;51.478;5.702;2022-07-19T06:38:06;25.20;99.90
43151;DHT22;28755;51.478;5.702;2022-07-19T06:40:32;25.30;99.90
43151;DHT22;28755;51.478;5.702;2022-07-19T06:42:57;25.60;99.90
43151;DHT22;28755;51.478;5.702;2022-07-19T06:45:23;25.80;99.90
43151;DHT22;28755;51.478;5.702;2022-07-19T06:47:48;25.90;99.90
43151;DHT22;28755;51.478;5.702;2022-07-19T06:50:16;25.90;99.90
43151;DHT22;28755;51.478;5.702;2022-07-19T06:52:41;26.10;99.90
43151;DHT22;28755;51.478;5.702;2022-07-19T06:55:07;26.40;99.90
43151;DHT22;28755;51.478;5.702;2022-07-19T06:57:33;26.40;99.90
43151;DHT22;28755;51.478;5.702;2022-07-19T06:59:58;26.70;99.90
43151;DHT22;28755;51.478;5.702;2022-07-19T07:02:24;26.90;99.90
43151;DHT22;28755;51.478;5.702;2022-07-19T07:04:50;27.10;99.90
43151;DHT22;28755;51.478;5.702;2022-07-19T07:07:15;27.30;99.90
43151;DHT22;28755;51.478;5.702;2022-07-19T07:09:41;27.50;99.90
43151;DHT22;28755;51.478;5.702;2022-07-19T07:12:07;27.70;99.90
43151;DHT22;28755;51.478;5.702;2022-07-19T07:14:34;27.90;99.90
43151;DHT22;28755;51.478;5.702;2022-07-19T07:17:00;28.10;99.90
43151;DHT22;28755;51.478;5.702;2022-07-19T07:19:26;28.20;99.90
43151;DHT22;28755;51.478;5.702;2022-07-19T07:21:51;28.30;99.90
43151;DHT22;28755;51.478;5.702;2022-07-19T07:24:17;28.30;99.90
43151;DHT22;28755;51.478;5.702;2022-07-19T07:26:43;28.60;99.90
43151;DHT22;28755;51.478;5.702;2022-07-19T07:29:08;28.70;99.80
43151;DHT22;28755;51.478;5.702;2022-07-19T07:31:34;28.80;99.30
43151;DHT22;28755;51.478;5.702;2022-07-19T07:34:00;29.20;99.30
43151;DHT22;28755;51.478;5.702;2022-07-19T07:36:25;29.40;98.30
43151;DHT22;28755;51.478;5.702;2022-07-19T07:38:51;29.60;98.60
43151;DHT22;28755;51.478;5.702;2022-07-19T07:41:16;30.00;98.40
43151;DHT22;28755;51.478;5.702;2022-07-19T07:43:42;30.30;98.00
43151;DHT22;28755;51.478;5.702;2022-07-19T07:46:07;30.40;97.30
43151;DHT22;28755;51.478;5.702;2022-07-19T07:48:33;30.70;96.80
43151;DHT22;28755;51.478;5.702;2022-07-19T07:50:58;30.70;96.90
43151;DHT22;28755;51.478;5.702;2022-07-19T07:53:24;31.00;97.30
43151;DHT22;28755;51.478;5.702;2022-07-19T07:55:49;31.20;97.10
43151;DHT22;28755;51.478;5.702;2022-07-19T07:58:15;31.40;96.50
43151;DHT22;28755;51.478;5.702;2022-07-19T08:00:41;31.50;96.60
43151;DHT22;28755;51.478;5.702;2022-07-19T08:03:07;31.80;95.90
43151;DHT22;28755;51.478;5.702;2022-07-19T08:05:33;31.90;95.80
43151;DHT22;28755;51.478;5.702;2022-07-19T08:07:59;32.00;95.70
43151;DHT22;28755;51.478;5.702;2022-07-19T08:10:27;32.20;95.30
43151;DHT22;28755;51.478;5.702;2022-07-19T08:12:53;32.40;95.00
43151;DHT22;28755;51.478;5.702;2022-07-19T08:15:19;32.40;94.90
43151;DHT22;28755;51.478;5.702;2022-07-19T08:17:45;32.50;94.90
43151;DHT22;28755;51.478;5.702;2022-07-19T08:20:11;32.60;93.60
43151;DHT22;28755;51.478;5.702;2022-07-19T08:22:37;32.90;93.90
43151;DHT22;28755;51.478;5.702;2022-07-19T08:25:03;32.90;93.50
43151;DHT22;28755;51.478;5.702;2022-07-19T08:27:29;33.30;91.50
43151;DHT22;28755;51.478;5.702;2022-07-19T08:29:54;33.50;91.50
43151;DHT22;28755;51.478;5.702;2022-07-19T08:32:20;33.50;90.80
43151;DHT22;28755;51.478;5.702;2022-07-19T08:34:46;33.80;90.40
43151;DHT22;28755;51.478;5.702;2022-07-19T08:37:11;34.00;90.40
43151;DHT22;28755;51.478;5.702;2022-07-19T08:39:37;34.10;90.10
43151;DHT22;28755;51.478;5.702;2022-07-19T08:42:02;34.10;90.10
43151;DHT22;28755;51.478;5.702;2022-07-19T08:44:29;34.50;89.20
43151;DHT22;28755;51.478;5.702;2022-07-19T08:46:55;34.90;88.50
43151;DHT22;28755;51.478;5.702;2022-07-19T08:49:21;35.30;87.80
43151;DHT22;28755;51.478;5.702;2022-07-19T08:51:48;35.60;87.20
43151;DHT22;28755;51.478;5.702;2022-07-19T08:54:14;35.90;86.30
43151;DHT22;28755;51.478;5.702;2022-07-19T08:56:40;36.10;85.70
43151;DHT22;28755;51.478;5.702;2022-07-19T08:59:24;36.40;85.10
43151;DHT22;28755;51.478;5.702;2022-07-19T09:01:50;36.60;84.70
43151;DHT22;28755;51.478;5.702;2022-07-19T09:04:18;36.90;82.70
43151;DHT22;28755;51.478;5.702;2022-07-19T09:06:53;36.80;82.20
43151;DHT22;28755;51.478;5.702;2022-07-19T09:09:28;36.90;82.10
43151;DHT22;28755;51.478;5.702;2022-07-19T09:11:56;36.50;81.70
43151;DHT22;28755;51.478;5.702;2022-07-19T09:14:24;36.80;81.80
43151;DHT22;28755;51.478;5.702;2022-07-19T09:16:53;36.90;81.20
43151;DHT22;28755;51.478;5.702;2022-07-19T09:19:20;36.70;81.40
43151;DHT22;28755;51.478;5.702;2022-07-19T09:22:00;36.90;81.20
43151;DHT22;28755;51.478;5.702;2022-07-19T09:24:27;37.20;82.10
43151;DHT22;28755;51.478;5.702;2022-07-19T09:27:00;37.50;81.50
43151;DHT22;28755;51.478;5.702;2022-07-19T09:29:27;37.90;79.50
43151;DHT22;28755;51.478;5.702;2022-07-19T09:32:11;37.90;79.80
43151;DHT22;28755;51.478;5.702;2022-07-19T09:39:43;39.10;78.10
43151;DHT22;28755;51.478;5.702;2022-07-19T09:42:18;39.90;78.70
43151;DHT22;28755;51.478;5.702;2022-07-19T09:44:45;40.20;78.00
43151;DHT22;28755;51.478;5.702;2022-07-19T09:47:11;40.40;76.50
43151;DHT22;28755;51.478;5.702;2022-07-19T09:49:37;40.50;76.10
43151;DHT22;28755;51.478;5.702;2022-07-19T09:52:02;40.10;75.90
43151;DHT22;28755;51.478;5.702;2022-07-19T09:54:29;40.50;75.40
43151;DHT22;28755;51.478;5.702;2022-07-19T09:56:56;39.50;74.90
43151;DHT22;28755;51.478;5.702;2022-07-19T09:59:23;39.20;75.40
43151;DHT22;28755;51.478;5.702;2022-07-19T10:01:52;39.60;75.60
43151;DHT22;28755;51.478;5.702;2022-07-19T10:04:20;40.00;75.50
43151;DHT22;28755;51.478;5.702;2022-07-19T10:06:48;40.50;75.60
43151;DHT22;28755;51.478;5.702;2022-07-19T10:09:16;40.80;75.60
43151;DHT22;28755;51.478;5.702;2022-07-19T10:11:42;41.40;75.20
43151;DHT22;28755;51.478;5.702;2022-07-19T10:14:08;41.90;74.20
43151;DHT22;28755;51.478;5.702;2022-07-19T10:16:58;41.50;73.90
43151;DHT22;28755;51.478;5.702;2022-07-19T10:21:57;42.80;73.90
43151;DHT22;28755;51.478;5.702;2022-07-19T10:24:42;43.60;73.00
43151;DHT22;28755;51.478;5.702;2022-07-19T10:27:08;43.40;69.60
43151;DHT22;28755;51.478;5.702;2022-07-19T10:29:34;42.80;69.50
43151;DHT22;28755;51.478;5.702;2022-07-19T10:32:11;42.80;70.00
43151;DHT22;28755;51.478;5.702;2022-07-19T10:34:38;43.40;71.00
43151;DHT22;28755;51.478;5.702;2022-07-19T10:37:04;44.00;70.90
43151;DHT22;28755;51.478;5.702;2022-07-19T10:50:06;45.20;67.80
43151;DHT22;28755;51.478;5.702;2022-07-19T10:57:48;45.50;66.40
43151;DHT22;28755;51.478;5.702;2022-07-19T11:00:21;46.50;65.50
43151;DHT22;28755;51.478;5.702;2022-07-19T11:02:47;46.00;65.50
43151;DHT22;28755;51.478;5.702;2022-07-19T11:05:31;46.30;65.40
43151;DHT22;28755;51.478;5.702;2022-07-19T11:07:57;46.90;65.00
43151;DHT22;28755;51.478;5.702;2022-07-19T11:10:25;46.70;64.10
43151;DHT22;28755;51.478;5.702;2022-07-19T11:12:52;46.20;63.20
43151;DHT22;28755;51.478;5.702;2022-07-19T11:15:18;46.60;63.00
43151;DHT22;28755;51.478;5.702;2022-07-19T11:18:04;46.40;62.50
43151;DHT22;28755;51.478;5.702;2022-07-19T11:20:31;46.20;61.70
43151;DHT22;28755;51.478;5.702;2022-07-19T11:22:58;46.80;61.20
43151;DHT22;28755;51.478;5.702;2022-07-19T11:25:31;47.00;59.40
43151;DHT22;28755;51.478;5.702;2022-07-19T11:27:58;46.20;59.40
43151;DHT22;28755;51.478;5.702;2022-07-19T11:30:26;46.20;59.40
43151;DHT22;28755;51.478;5.702;2022-07-19T11:32:54;45.80;60.00
43151;DHT22;28755;51.478;5.702;2022-07-19T11:35:20;45.90;59.90
43151;DHT22;28755;51.478;5.702;2022-07-19T11:37:45;45.60;60.30
43151;DHT22;28755;51.478;5.702;2022-07-19T11:40:12;46.40;60.20
43151;DHT22;28755;51.478;5.702;2022-07-19T11:42:46;46.00;60.20
43151;DHT22;28755;51.478;5.702;2022-07-19T11:45:17;45.40;60.60
43151;DHT22;28755;51.478;5.702;2022-07-19T11:47:45;45.70;60.30
43151;DHT22;28755;51.478;5.702;2022-07-19T11:50:13;46.10;59.90
43151;DHT22;28755;51.478;5.702;2022-07-19T11:52:57;44.70;59.30
43151;DHT22;28755;51.478;5.702;2022-07-19T11:55:25;43.90;60.70
43151;DHT22;28755;51.478;5.702;2022-07-19T11:57:52;44.40;60.20
43151;DHT22;28755;51.478;5.702;2022-07-19T12:00:19;44.00;60.00
43151;DHT22;28755;51.478;5.702;2022-07-19T12:03:01;43.80;61.90
43151;DHT22;28755;51.478;5.702;2022-07-19T12:05:36;43.70;61.00
43151;DHT22;28755;51.478;5.702;2022-07-19T12:08:05;42.90;61.30
43151;DHT22;28755;51.478;5.702;2022-07-19T12:10:47;42.40;61.60
43151;DHT22;28755;51.478;5.702;2022-07-19T12:13:27;42.30;62.60
43151;DHT22;28755;51.478;5.702;2022-07-19T12:15:55;42.20;62.50
43151;DHT22;28755;51.478;5.702;2022-07-19T12:18:23;41.70;62.60
43151;DHT22;28755;51.478;5.702;2022-07-19T12:21:26;41.50;62.90
43151;DHT22;28755;51.478;5.702;2022-07-19T12:26:59;41.60;63.00
43151;DHT22;28755;51.478;5.702;2022-07-19T12:29:36;40.80;62.80
43151;DHT22;28755;51.478;5.702;2022-07-19T12:32:26;40.10;62.70
43151;DHT22;28755;51.478;5.702;2022-07-19T12:34:55;39.30;63.10
43151;DHT22;28755;51.478;5.702;2022-07-19T12:37:36;38.90;63.30
43151;DHT22;28755;51.478;5.702;2022-07-19T12:40:23;38.90;63.40
43151;DHT22;28755;51.478;5.702;2022-07-19T12:42:57;38.80;63.50
43151;DHT22;28755;51.478;5.702;2022-07-19T12:45:33;39.10;62.90
43151;DHT22;28755;51.478;5.702;2022-07-19T12:48:01;39.10;62.80
43151;DHT22;28755;51.478;5.702;2022-07-19T12:50:36;39.10;63.40
43151;DHT22;28755;51.478;5.702;2022-07-19T12:53:06;39.20;63.30
43151;DHT22;28755;51.478;5.702;2022-07-19T12:55:33;39.10;62.10
43151;DHT22;28755;51.478;5.702;2022-07-19T12:58:00;39.10;61.90
43151;DHT22;28755;51.478;5.702;2022-07-19T13:00:28;39.00;62.20
43151;DHT22;28755;51.478;5.702;2022-07-19T13:02:55;39.00;62.70
43151;DHT22;28755;51.478;5.702;2022-07-19T13:05:22;38.80;62.50
43151;DHT22;28755;51.478;5.702;2022-07-19T13:07:48;38.80;62.50
43151;DHT22;28755;51.478;5.702;2022-07-19T13:10:15;38.90;62.20
43151;DHT22;28755;51.478;5.702;2022-07-19T13:12:41;38.80;61.70
43151;DHT22;28755;51.478;5.702;2022-07-19T13:15:08;38.80;62.10
43151;DHT22;28755;51.478;5.702;2022-07-19T13:17:34;38.80;61.70
43151;DHT22;28755;51.478;5.702;2022-07-19T13:20:00;39.00;62.00
43151;DHT22;28755;51.478;5.702;2022-07-19T13:22:25;39.10;61.40
43151;DHT22;28755;51.478;5.702;2022-07-19T13:24:51;39.00;61.60
43151;DHT22;28755;51.478;5.702;2022-07-19T13:27:17;39.10;61.80
43151;DHT22;28755;51.478;5.702;2022-07-19T13:29:44;39.10;61.90
43151;DHT22;28755;51.478;5.702;2022-07-19T13:32:10;39.10;62.00
43151;DHT22;28755;51.478;5.702;2022-07-19T13:34:37;39.10;61.30
43151;DHT22;28755;51.478;5.702;2022-07-19T13:37:03;39.10;61.20
43151;DHT22;28755;51.478;5.702;2022-07-19T13:39:29;39.20;61.60
43151;DHT22;28755;51.478;5.702;2022-07-19T13:41:55;39.30;62.00
43151;DHT22;28755;51.478;5.702;2022-07-19T13:44:21;39.10;61.80
43151;DHT22;28755;51.478;5.702;2022-07-19T13:46:47;39.10;61.00
43151;DHT22;28755;51.478;5.702;2022-07-19T13:49:12;39.00;61.20
43151;DHT22;28755;51.478;5.702;2022-07-19T13:51:38;38.90;61.30
43151;DHT22;28755;51.478;5.702;2022-07-19T13:54:04;39.00;60.20
43151;DHT22;28755;51.478;5.702;2022-07-19T13:56:30;38.90;60.10
43151;DHT22;28755;51.478;5.702;2022-07-19T13:58:55;39.00;59.80
43151;DHT22;28755;51.478;5.702;2022-07-19T14:01:21;39.10;59.70
43151;DHT22;28755;51.478;5.702;2022-07-19T14:03:46;39.10;59.40
43151;DHT22;28755;51.478;5.702;2022-07-19T14:06:13;39.00;59.50
43151;DHT22;28755;51.478;5.702;2022-07-19T14:08:39;39.40;59.80
43151;DHT22;28755;51.478;5.702;2022-07-19T14:11:05;39.60;59.80
43151;DHT22;28755;51.478;5.702;2022-07-19T14:13:30;39.50;59.40
43151;DHT22;28755;51.478;5.702;2022-07-19T14:15:57;39.30;59.60
43151;DHT22;28755;51.478;5.702;2022-07-19T14:18:23;39.10;58.50
43151;DHT22;28755;51.478;5.702;2022-07-19T14:20:48;39.00;58.80
43151;DHT22;28755;51.478;5.702;2022-07-19T14:23:14;39.00;58.60
43151;DHT22;28755;51.478;5.702;2022-07-19T14:25:40;39.00;59.20
43151;DHT22;28755;51.478;5.702;2022-07-19T14:28:07;38.90;59.20
43151;DHT22;28755;51.478;5.702;2022-07-19T14:30:33;38.90;58.20
43151;DHT22;28755;51.478;5.702;2022-07-19T14:32:59;38.60;58.30
43151;DHT22;28755;51.478;5.702;2022-07-19T14:35:25;38.60;58.40
43151;DHT22;28755;51.478;5.702;2022-07-19T14:37:51;38.70;58.80
43151;DHT22;28755;51.478;5.702;2022-07-19T14:40:16;38.80;57.90
43151;DHT22;28755;51.478;5.702;2022-07-19T14:42:42;39.00;57.80
43151;DHT22;28755;51.478;5.702;2022-07-19T14:45:09;39.10;57.90
43151;DHT22;28755;51.478;5.702;2022-07-19T14:47:35;39.60;57.60
43151;DHT22;28755;51.478;5.702;2022-07-19T14:50:02;40.10;57.30
43151;DHT22;28755;51.478;5.702;2022-07-19T14:52:28;40.70;57.00
43151;DHT22;28755;51.478;5.702;2022-07-19T14:54:54;40.80;57.10
43151;DHT22;28755;51.478;5.702;2022-07-19T14:57:22;40.70;56.80
43151;DHT22;28755;51.478;5.702;2022-07-19T14:59:48;40.50;57.10
43151;DHT22;28755;51.478;5.702;2022-07-19T15:02:14;40.10;57.40
43151;DHT22;28755;51.478;5.702;2022-07-19T15:04:40;39.60;57.20
43151;DHT22;28755;51.478;5.702;2022-07-19T15:07:05;39.50;57.90
43151;DHT22;28755;51.478;5.702;2022-07-19T15:09:31;39.40;58.20
43151;DHT22;28755;51.478;5.702;2022-07-19T15:11:57;39.30;58.00
43151;DHT22;28755;51.478;5.702;2022-07-19T15:14:28;39.10;57.10
43151;DHT22;28755;51.478;5.702;2022-07-19T15:16:55;39.00;57.20
43151;DHT22;28755;51.478;5.702;2022-07-19T15:19:21;38.90;57.20
43151;DHT22;28755;51.478;5.702;2022-07-19T15:21:46;38.80;57.60
43151;DHT22;28755;51.478;5.702;2022-07-19T15:24:12;38.80;57.70
43151;DHT22;28755;51.478;5.702;2022-07-19T15:26:38;38.70;56.60
43151;DHT22;28755;51.478;5.702;2022-07-19T15:29:03;38.60;57.00
43151;DHT22;28755;51.478;5.702;2022-07-19T15:31:29;38.60;56.70
43151;DHT22;28755;51.478;5.702;2022-07-19T15:33:55;38.70;56.90
43151;DHT22;28755;51.478;5.702;2022-07-19T15:36:21;38.60;57.20
43151;DHT22;28755;51.478;5.702;2022-07-19T15:38:47;38.50;57.40
43151;DHT22;28755;51.478;5.702;2022-07-19T15:41:12;38.60;56.80
43151;DHT22;28755;51.478;5.702;2022-07-19T15:43:38;38.60;56.80
43151;DHT22;28755;51.478;5.702;2022-07-19T15:46:04;38.50;56.50
43151;DHT22;28755;51.478;5.702;2022-07-19T15:48:30;38.40;56.40
43151;DHT22;28755;51.478;5.702;2022-07-19T15:50:55;38.30;56.50
43151;DHT22;28755;51.478;5.702;2022-07-19T15:53:21;38.30;56.80
43151;DHT22;28755;51.478;5.702;2022-07-19T15:55:46;38.30;57.10